sensor_id;sensor_type;location;lat;lon;timestamp;pressure;altitude;pressure_sealevel;temperature;humidity
71361;BME280;59166;48.908;1.870;2023-04-06T00:03:09;100537.84;;;8.92;65.26
71361;BME280;59166;48.908;1.870;2023-04-06T00:08:12;100529.91;;;8.86;66.22
71361;BME280;59166;48.908;1.870;2023-04-06T00:13:13;100528.84;;;8.87;65.97
71361;BME280;59166;48.908;1.870;2023-04-06T00:18:14;100523.69;;;8.85;67.48
71361;BME280;59166;48.908;1.870;2023-04-06T00:23:16;100517.84;;;8.88;64.41
71361;BME280;59166;48.908;1.870;2023-04-06T00:28:17;100522.19;;;8.89;66.39
71361;BME280;59166;48.908;1.870;2023-04-06T00:33:18;100514.16;;;8.77;67.61
71361;BME280;59166;48.908;1.870;2023-04-06T00:38:20;100508.19;;;8.75;66.42
71361;BME280;59166;48.908;1.870;2023-04-06T00:43:22;100498.72;;;8.73;69.25
71361;BME280;59166;48.908;1.870;2023-04-06T00:48:23;100496.84;;;8.73;66.10
71361;BME280;59166;48.908;1.870;2023-04-06T00:53:25;100485.63;;;8.65;66.63
71361;BME280;59166;48.908;1.870;2023-04-06T00:58:26;100475.19;;;8.68;68.01
71361;BME280;59166;48.908;1.870;2023-04-06T01:03:27;100478.81;;;8.74;67.94
71361;BME280;59166;48.908;1.870;2023-04-06T01:08:30;100482.94;;;8.65;69.34
71361;BME280;59166;48.908;1.870;2023-04-06T01:13:31;100487.84;;;8.68;68.87
71361;BME280;59166;48.908;1.870;2023-04-06T01:18:32;100468.44;;;8.66;70.14
71361;BME280;59166;48.908;1.870;2023-04-06T01:23:35;100467.59;;;8.49;72.01
71361;BME280;59166;48.908;1.870;2023-04-06T01:28:36;100471.00;;;8.44;72.50
71361;BME280;59166;48.908;1.870;2023-04-06T01:33:36;100457.50;;;8.56;72.08
71361;BME280;59166;48.908;1.870;2023-04-06T01:38:39;100443.19;;;8.55;72.29
71361;BME280;59166;48.908;1.870;2023-04-06T01:43:40;100434.56;;;8.53;73.13
71361;BME280;59166;48.908;1.870;2023-04-06T01:48:41;100443.38;;;8.49;73.25
71361;BME280;59166;48.908;1.870;2023-04-06T01:53:43;100438.69;;;8.44;73.04
71361;BME280;59166;48.908;1.870;2023-04-06T01:58:44;100436.75;;;8.40;73.76
71361;BME280;59166;48.908;1.870;2023-04-06T02:03:45;100435.13;;;8.39;75.19
71361;BME280;59166;48.908;1.870;2023-04-06T02:08:47;100424.34;;;8.39;75.67
71361;BME280;59166;48.908;1.870;2023-04-06T02:13:48;100408.19;;;8.39;76.61
71361;BME280;59166;48.908;1.870;2023-04-06T02:18:49;100419.22;;;8.37;73.66
71361;BME280;59166;48.908;1.870;2023-04-06T02:23:52;100427.91;;;8.27;75.13
71361;BME280;59166;48.908;1.870;2023-04-06T02:28:53;100421.41;;;8.23;76.90
71361;BME280;59166;48.908;1.870;2023-04-06T02:33:54;100417.06;;;8.22;75.82
71361;BME280;59166;48.908;1.870;2023-04-06T02:38:56;100418.94;;;8.22;76.14
71361;BME280;59166;48.908;1.870;2023-04-06T02:43:57;100410.63;;;8.23;76.95
71361;BME280;59166;48.908;1.870;2023-04-06T02:48:58;100418.56;;;8.30;75.64
71361;BME280;59166;48.908;1.870;2023-04-06T02:54:01;100427.84;;;8.22;77.76
71361;BME280;59166;48.908;1.870;2023-04-06T02:59:01;100410.63;;;8.23;78.21
71361;BME280;59166;48.908;1.870;2023-04-06T03:04:03;100391.81;;;8.23;77.47
71361;BME280;59166;48.908;1.870;2023-04-06T03:09:06;100372.97;;;8.23;79.54
71361;BME280;59166;48.908;1.870;2023-04-06T03:14:07;100366.16;;;8.21;77.95
71361;BME280;59166;48.908;1.870;2023-04-06T03:19:07;100350.19;;;8.31;77.55
71361;BME280;59166;48.908;1.870;2023-04-06T03:24:10;100349.38;;;8.30;75.26
71361;BME280;59166;48.908;1.870;2023-04-06T03:29:11;100356.66;;;8.47;74.88
71361;BME280;59166;48.908;1.870;2023-04-06T03:34:12;100359.00;;;8.26;78.29
71361;BME280;59166;48.908;1.870;2023-04-06T03:39:14;100382.97;;;8.28;78.27
71361;BME280;59166;48.908;1.870;2023-04-06T03:44:15;100395.25;;;8.07;80.61
71361;BME280;59166;48.908;1.870;2023-04-06T03:49:16;100394.16;;;7.92;81.36
71361;BME280;59166;48.908;1.870;2023-04-06T03:54:18;100393.13;;;7.93;80.88
71361;BME280;59166;48.908;1.870;2023-04-06T03:59:19;100383.44;;;7.80;82.79
71361;BME280;59166;48.908;1.870;2023-04-06T04:04:20;100394.47;;;7.78;81.90
71361;BME280;59166;48.908;1.870;2023-04-06T04:09:23;100392.19;;;7.87;83.04
71361;BME280;59166;48.908;1.870;2023-04-06T04:14:24;100406.56;;;7.93;83.18
71361;BME280;59166;48.908;1.870;2023-04-06T04:19:25;100406.56;;;7.93;84.72
71361;BME280;59166;48.908;1.870;2023-04-06T04:24:27;100402.47;;;7.90;86.36
71361;BME280;59166;48.908;1.870;2023-04-06T04:29:28;100400.72;;;7.96;88.39
71361;BME280;59166;48.908;1.870;2023-04-06T04:34:29;100409.28;;;7.81;92.35
71361;BME280;59166;48.908;1.870;2023-04-06T04:39:32;100417.13;;;7.83;92.87
71361;BME280;59166;48.908;1.870;2023-04-06T04:44:33;100414.94;;;7.79;94.31
71361;BME280;59166;48.908;1.870;2023-04-06T04:49:34;100404.72;;;7.82;95.57
71361;BME280;59166;48.908;1.870;2023-04-06T04:54:36;100405.06;;;7.85;96.23
71361;BME280;59166;48.908;1.870;2023-04-06T04:59:37;100388.25;;;7.78;96.03
71361;BME280;59166;48.908;1.870;2023-04-06T05:04:38;100391.78;;;7.78;96.51
71361;BME280;59166;48.908;1.870;2023-04-06T05:09:41;100377.03;;;7.81;97.15
71361;BME280;59166;48.908;1.870;2023-04-06T05:14:41;100370.34;;;7.84;96.80
71361;BME280;59166;48.908;1.870;2023-04-06T05:19:43;100387.56;;;7.83;97.92
71361;BME280;59166;48.908;1.870;2023-04-06T05:24:45;100372.53;;;7.87;97.79
71361;BME280;59166;48.908;1.870;2023-04-06T05:29:46;100376.66;;;7.89;97.80
71361;BME280;59166;48.908;1.870;2023-04-06T05:34:48;100380.72;;;7.92;95.82
71361;BME280;59166;48.908;1.870;2023-04-06T05:39:50;100379.22;;;7.84;96.28
71361;BME280;59166;48.908;1.870;2023-04-06T05:44:51;100380.75;;;7.80;95.06
71361;BME280;59166;48.908;1.870;2023-04-06T05:49:52;100391.38;;;7.87;95.22
71361;BME280;59166;48.908;1.870;2023-04-06T05:54:54;100388.38;;;7.83;95.39
71361;BME280;59166;48.908;1.870;2023-04-06T05:59:55;100383.56;;;7.85;96.84
71361;BME280;59166;48.908;1.870;2023-04-06T06:04:56;100391.38;;;7.87;97.25
71361;BME280;59166;48.908;1.870;2023-04-06T06:09:59;100403.84;;;7.64;100.00
71361;BME280;59166;48.908;1.870;2023-04-06T06:15:00;100411.25;;;7.57;100.00
71361;BME280;59166;48.908;1.870;2023-04-06T06:20:01;100419.09;;;7.47;100.00
71361;BME280;59166;48.908;1.870;2023-04-06T06:25:04;100417.56;;;7.51;100.00
71361;BME280;59166;48.908;1.870;2023-04-06T06:30:06;100413.09;;;7.57;100.00
71361;BME280;59166;48.908;1.870;2023-04-06T06:35:08;100418.81;;;7.60;100.00
71361;BME280;59166;48.908;1.870;2023-04-06T06:40:11;100420.94;;;7.58;100.00
71361;BME280;59166;48.908;1.870;2023-04-06T06:45:12;100416.25;;;7.65;100.00
71361;BME280;59166;48.908;1.870;2023-04-06T06:50:13;100418.19;;;7.70;100.00
71361;BME280;59166;48.908;1.870;2023-04-06T06:55:15;100412.13;;;7.74;100.00
71361;BME280;59166;48.908;1.870;2023-04-06T07:00:17;100406.53;;;7.76;100.00
71361;BME280;59166;48.908;1.870;2023-04-06T07:05:18;100401.34;;;7.86;100.00
71361;BME280;59166;48.908;1.870;2023-04-06T07:10:20;100396.97;;;7.97;100.00
71361;BME280;59166;48.908;1.870;2023-04-06T07:15:21;100395.84;;;8.09;100.00
71361;BME280;59166;48.908;1.870;2023-04-06T07:20:22;100395.22;;;8.19;100.00
71361;BME280;59166;48.908;1.870;2023-04-06T07:25:24;100398.81;;;8.41;100.00
71361;BME280;59166;48.908;1.870;2023-04-06T07:30:25;100388.69;;;8.65;100.00
71361;BME280;59166;48.908;1.870;2023-04-06T07:35:27;100375.06;;;8.88;100.00
71361;BME280;59166;48.908;1.870;2023-04-06T07:40:29;100381.28;;;9.27;100.00
71361;BME280;59166;48.908;1.870;2023-04-06T07:45:30;100382.38;;;9.48;99.95
71361;BME280;59166;48.908;1.870;2023-04-06T07:50:31;100376.19;;;9.74;98.22
71361;BME280;59166;48.908;1.870;2023-04-06T07:55:34;100382.00;;;10.14;97.83
71361;BME280;59166;48.908;1.870;2023-04-06T08:00:34;100387.09;;;10.11;93.54
71361;BME280;59166;48.908;1.870;2023-04-06T08:05:35;100387.66;;;9.86;93.81
71361;BME280;59166;48.908;1.870;2023-04-06T08:10:38;100387.06;;;9.79;94.54
71361;BME280;59166;48.908;1.870;2023-04-06T08:15:38;100407.50;;;9.53;95.10
71361;BME280;59166;48.908;1.870;2023-04-06T08:20:39;100417.78;;;9.35;97.58
71361;BME280;59166;48.908;1.870;2023-04-06T08:25:42;100398.88;;;9.13;99.01
71361;BME280;59166;48.908;1.870;2023-04-06T08:30:43;100399.19;;;9.16;100.00
71361;BME280;59166;48.908;1.870;2023-04-06T08:35:44;100410.38;;;9.08;100.00
71361;BME280;59166;48.908;1.870;2023-04-06T08:40:46;100416.22;;;9.00;100.00
71361;BME280;59166;48.908;1.870;2023-04-06T08:45:50;100425.84;;;8.96;100.00
71361;BME280;59166;48.908;1.870;2023-04-06T08:50:51;100414.56;;;8.99;100.00
71361;BME280;59166;48.908;1.870;2023-04-06T08:55:54;100417.75;;;9.13;100.00
71361;BME280;59166;48.908;1.870;2023-04-06T09:00:57;100424.50;;;9.15;100.00
71361;BME280;59166;48.908;1.870;2023-04-06T09:05:59;100421.16;;;9.08;100.00
71361;BME280;59166;48.908;1.870;2023-04-06T09:11:02;100416.13;;;8.95;100.00
71361;BME280;59166;48.908;1.870;2023-04-06T09:16:05;100423.63;;;9.10;100.00
71361;BME280;59166;48.908;1.870;2023-04-06T09:21:06;100450.41;;;9.16;100.00
71361;BME280;59166;48.908;1.870;2023-04-06T09:26:11;100444.47;;;9.14;100.00
71361;BME280;59166;48.908;1.870;2023-04-06T09:31:13;100450.09;;;9.13;100.00
71361;BME280;59166;48.908;1.870;2023-04-06T09:36:14;100448.94;;;9.09;100.00
71361;BME280;59166;48.908;1.870;2023-04-06T09:41:22;100444.09;;;9.27;100.00
71361;BME280;59166;48.908;1.870;2023-04-06T09:46:23;100449.50;;;9.49;100.00
71361;BME280;59166;48.908;1.870;2023-04-06T09:51:26;100426.38;;;9.75;100.00
71361;BME280;59166;48.908;1.870;2023-04-06T09:56:39;100429.06;;;10.23;100.00
71361;BME280;59166;48.908;1.870;2023-04-06T10:01:46;100439.09;;;10.55;100.00
71361;BME280;59166;48.908;1.870;2023-04-06T10:06:49;100426.28;;;10.72;100.00
71361;BME280;59166;48.908;1.870;2023-04-06T10:11:51;100436.16;;;10.88;100.00
71361;BME280;59166;48.908;1.870;2023-04-06T10:16:53;100447.81;;;10.62;100.00
71361;BME280;59166;48.908;1.870;2023-04-06T10:21:55;100447.69;;;10.78;100.00
71361;BME280;59166;48.908;1.870;2023-04-06T10:27:01;100447.53;;;10.90;100.00
71361;BME280;59166;48.908;1.870;2023-04-06T10:32:03;100438.91;;;10.93;100.00
71361;BME280;59166;48.908;1.870;2023-04-06T10:37:12;100436.75;;;10.95;100.00
71361;BME280;59166;48.908;1.870;2023-04-06T10:42:14;100435.75;;;11.06;99.13
71361;BME280;59166;48.908;1.870;2023-04-06T10:47:18;100436.88;;;11.10;93.32
71361;BME280;59166;48.908;1.870;2023-04-06T10:52:19;100438.59;;;11.83;93.55
71361;BME280;59166;48.908;1.870;2023-04-06T10:57:29;100441.13;;;12.20;90.78
71361;BME280;59166;48.908;1.870;2023-04-06T11:02:30;100425.53;;;12.53;88.10
71361;BME280;59166;48.908;1.870;2023-04-06T11:07:31;100421.25;;;13.61;87.50
71361;BME280;59166;48.908;1.870;2023-04-06T11:12:33;100423.81;;;13.32;80.18
71361;BME280;59166;48.908;1.870;2023-04-06T11:17:36;100424.41;;;12.74;82.52
71361;BME280;59166;48.908;1.870;2023-04-06T11:22:48;100415.75;;;12.67;83.99
71361;BME280;59166;48.908;1.870;2023-04-06T11:27:50;100412.22;;;12.71;82.11
71361;BME280;59166;48.908;1.870;2023-04-06T12:24:05;100371.16;;;14.41;67.59
71361;BME280;59166;48.908;1.870;2023-04-06T12:29:06;100382.34;;;14.30;66.58
71361;BME280;59166;48.908;1.870;2023-04-06T12:34:07;100379.94;;;14.28;67.28
71361;BME280;59166;48.908;1.870;2023-04-06T12:39:10;100372.72;;;14.76;66.04
71361;BME280;59166;48.908;1.870;2023-04-06T12:44:11;100371.50;;;14.92;65.33
71361;BME280;59166;48.908;1.870;2023-04-06T12:49:12;100380.34;;;15.08;65.37
71361;BME280;59166;48.908;1.870;2023-04-06T12:54:14;100370.31;;;15.04;64.85
71361;BME280;59166;48.908;1.870;2023-04-06T12:59:15;100372.13;;;14.84;62.93
71361;BME280;59166;48.908;1.870;2023-04-06T13:04:16;100368.06;;;15.34;59.74
71361;BME280;59166;48.908;1.870;2023-04-06T13:09:18;100362.16;;;15.51;60.17
71361;BME280;59166;48.908;1.870;2023-04-06T13:14:19;100378.13;;;15.58;58.19
71361;BME280;59166;48.908;1.870;2023-04-06T13:19:22;100361.69;;;15.44;59.35
71361;BME280;59166;48.908;1.870;2023-04-06T13:24:24;100374.31;;;15.59;58.46
71361;BME280;59166;48.908;1.870;2023-04-06T13:29:25;100378.25;;;15.24;58.22
71361;BME280;59166;48.908;1.870;2023-04-06T13:34:26;100376.88;;;15.03;58.53
71361;BME280;59166;48.908;1.870;2023-04-06T13:39:28;100377.03;;;14.82;60.09
71361;BME280;59166;48.908;1.870;2023-04-06T13:44:29;100377.41;;;14.71;58.76
71361;BME280;59166;48.908;1.870;2023-04-06T13:49:30;100374.78;;;14.95;57.49
71361;BME280;59166;48.908;1.870;2023-04-06T13:54:32;100376.34;;;15.48;57.01
71361;BME280;59166;48.908;1.870;2023-04-06T13:59:34;100370.88;;;15.29;56.62
71361;BME280;59166;48.908;1.870;2023-04-06T14:04:35;100369.97;;;15.10;57.72
71361;BME280;59166;48.908;1.870;2023-04-06T14:09:37;100374.19;;;15.69;55.74
71361;BME280;59166;48.908;1.870;2023-04-06T14:14:38;100368.47;;;15.89;56.36
71361;BME280;59166;48.908;1.870;2023-04-06T14:19:39;100373.59;;;15.53;57.23
71361;BME280;59166;48.908;1.870;2023-04-06T14:24:41;100371.38;;;15.55;58.37
71361;BME280;59166;48.908;1.870;2023-04-06T14:29:42;100365.25;;;15.87;56.09
71361;BME280;59166;48.908;1.870;2023-04-06T14:34:43;100360.22;;;15.75;56.86
71361;BME280;59166;48.908;1.870;2023-04-06T14:39:45;100357.53;;;15.04;56.52
71361;BME280;59166;48.908;1.870;2023-04-06T14:44:46;100366.78;;;14.74;58.76
71361;BME280;59166;48.908;1.870;2023-04-06T14:49:47;100368.41;;;15.04;60.59
71361;BME280;59166;48.908;1.870;2023-04-06T14:54:49;100356.25;;;15.20;57.66
71361;BME280;59166;48.908;1.870;2023-04-06T14:59:52;100354.88;;;14.99;60.07
71361;BME280;59166;48.908;1.870;2023-04-06T15:04:53;100356.59;;;15.14;61.41
71361;BME280;59166;48.908;1.870;2023-04-06T15:09:56;100354.88;;;14.99;60.65
71361;BME280;59166;48.908;1.870;2023-04-06T15:14:56;100352.50;;;14.87;61.85
71361;BME280;59166;48.908;1.870;2023-04-06T15:19:57;100351.50;;;15.07;60.72
71361;BME280;59166;48.908;1.870;2023-04-06T15:25:00;100351.69;;;15.16;63.23
71361;BME280;59166;48.908;1.870;2023-04-06T15:30:01;100339.56;;;15.27;61.58
71361;BME280;59166;48.908;1.870;2023-04-06T15:35:08;100334.97;;;15.88;57.49
71361;BME280;59166;48.908;1.870;2023-04-06T15:40:12;100323.16;;;15.56;59.71
71361;BME280;59166;48.908;1.870;2023-04-06T15:45:13;100335.09;;;15.60;58.75
71361;BME280;59166;48.908;1.870;2023-04-06T15:50:14;100337.94;;;16.11;56.39
71361;BME280;59166;48.908;1.870;2023-04-06T15:55:16;100332.75;;;15.72;54.74
71361;BME280;59166;48.908;1.870;2023-04-06T16:00:17;100338.06;;;16.01;54.61
71361;BME280;59166;48.908;1.870;2023-04-06T16:05:18;100338.06;;;16.38;53.55
71361;BME280;59166;48.908;1.870;2023-04-06T16:10:21;100335.28;;;16.24;52.75
71361;BME280;59166;48.908;1.870;2023-04-06T16:15:21;100340.09;;;16.46;53.38
71361;BME280;59166;48.908;1.870;2023-04-06T16:20:22;100336.22;;;16.33;52.08
71361;BME280;59166;48.908;1.870;2023-04-06T16:25:24;100341.66;;;16.33;52.04
71361;BME280;59166;48.908;1.870;2023-04-06T16:30:25;100332.91;;;16.36;52.20
71361;BME280;59166;48.908;1.870;2023-04-06T16:35:26;100329.41;;;16.17;51.70
71361;BME280;59166;48.908;1.870;2023-04-06T16:40:28;100329.00;;;16.05;50.43
71361;BME280;59166;48.908;1.870;2023-04-06T16:45:29;100331.28;;;15.98;52.70
71361;BME280;59166;48.908;1.870;2023-04-06T16:50:30;100325.69;;;15.89;53.26
71361;BME280;59166;48.908;1.870;2023-04-06T16:55:32;100318.91;;;15.68;52.35
71361;BME280;59166;48.908;1.870;2023-04-06T17:00:35;100328.91;;;15.54;52.55
71361;BME280;59166;48.908;1.870;2023-04-06T17:05:36;100320.47;;;15.32;53.52
71361;BME280;59166;48.908;1.870;2023-04-06T17:10:39;100328.69;;;15.03;54.14
71361;BME280;59166;48.908;1.870;2023-04-06T17:15:39;100330.81;;;14.82;55.79
71361;BME280;59166;48.908;1.870;2023-04-06T17:20:40;100324.19;;;14.65;54.59
71361;BME280;59166;48.908;1.870;2023-04-06T17:25:42;100335.09;;;14.26;57.53
71361;BME280;59166;48.908;1.870;2023-04-06T17:30:43;100332.84;;;13.99;58.94
71361;BME280;59166;48.908;1.870;2023-04-06T17:35:44;100344.97;;;13.78;59.33
71361;BME280;59166;48.908;1.870;2023-04-06T17:40:47;100344.72;;;13.64;61.23
71361;BME280;59166;48.908;1.870;2023-04-06T17:45:48;100344.22;;;13.57;61.61
71361;BME280;59166;48.908;1.870;2023-04-06T17:50:49;100357.22;;;13.60;61.31
71361;BME280;59166;48.908;1.870;2023-04-06T17:55:51;100360.25;;;13.54;61.75
71361;BME280;59166;48.908;1.870;2023-04-06T18:00:52;100355.69;;;13.39;63.67
71361;BME280;59166;48.908;1.870;2023-04-06T18:05:53;100362.00;;;13.19;63.52
71361;BME280;59166;48.908;1.870;2023-04-06T18:10:55;100358.19;;;13.15;65.02
71361;BME280;59166;48.908;1.870;2023-04-06T18:15:58;100365.81;;;13.13;65.19
71361;BME280;59166;48.908;1.870;2023-04-06T18:21:02;100372.88;;;13.04;65.15
71361;BME280;59166;48.908;1.870;2023-04-06T18:26:05;100377.78;;;12.87;66.28
71361;BME280;59166;48.908;1.870;2023-04-06T18:31:06;100391.38;;;12.62;67.47
71361;BME280;59166;48.908;1.870;2023-04-06T18:36:07;100401.66;;;12.50;67.85
71361;BME280;59166;48.908;1.870;2023-04-06T18:41:09;100403.84;;;12.43;69.45
71361;BME280;59166;48.908;1.870;2023-04-06T18:46:10;100414.13;;;12.35;68.50
71361;BME280;59166;48.908;1.870;2023-04-06T18:51:11;100417.03;;;12.14;69.89
71361;BME280;59166;48.908;1.870;2023-04-06T18:56:15;100425.38;;;11.92;69.97
71361;BME280;59166;48.908;1.870;2023-04-06T19:01:20;100435.06;;;11.78;71.64
71361;BME280;59166;48.908;1.870;2023-04-06T19:06:21;100434.44;;;11.61;72.21
71361;BME280;59166;48.908;1.870;2023-04-06T19:11:26;100440.09;;;11.54;72.57
71361;BME280;59166;48.908;1.870;2023-04-06T19:16:27;100445.69;;;11.38;73.21
71361;BME280;59166;48.908;1.870;2023-04-06T19:21:27;100447.09;;;11.08;74.03
71361;BME280;59166;48.908;1.870;2023-04-06T19:26:30;100463.25;;;10.98;75.01
71361;BME280;59166;48.908;1.870;2023-04-06T19:31:31;100465.56;;;10.84;76.12
71361;BME280;59166;48.908;1.870;2023-04-06T19:36:32;100462.56;;;10.81;76.29
71361;BME280;59166;48.908;1.870;2023-04-06T19:41:34;100463.75;;;10.90;75.70
71361;BME280;59166;48.908;1.870;2023-04-06T19:46:35;100480.00;;;10.95;74.51
71361;BME280;59166;48.908;1.870;2023-04-06T19:51:36;100484.03;;;10.93;74.89
71361;BME280;59166;48.908;1.870;2023-04-06T19:56:38;100496.91;;;10.80;75.11
71361;BME280;59166;48.908;1.870;2023-04-06T20:01:40;100490.06;;;10.73;75.35
71361;BME280;59166;48.908;1.870;2023-04-06T20:06:43;100503.47;;;10.63;74.66
71361;BME280;59166;48.908;1.870;2023-04-06T20:11:52;100502.75;;;10.46;75.27
71361;BME280;59166;48.908;1.870;2023-04-06T20:16:54;100500.19;;;10.34;75.71
71361;BME280;59166;48.908;1.870;2023-04-06T20:21:55;100492.25;;;10.22;76.56
71361;BME280;59166;48.908;1.870;2023-04-06T20:27:01;100491.34;;;10.17;76.61
71361;BME280;59166;48.908;1.870;2023-04-06T20:32:01;100496.91;;;10.05;77.01
71361;BME280;59166;48.908;1.870;2023-04-06T20:37:02;100494.28;;;9.89;77.63
71361;BME280;59166;48.908;1.870;2023-04-06T20:42:05;100493.66;;;9.81;77.95
71361;BME280;59166;48.908;1.870;2023-04-06T20:47:07;100495.38;;;9.71;78.27
71361;BME280;59166;48.908;1.870;2023-04-06T20:52:09;100496.81;;;9.57;78.05
71361;BME280;59166;48.908;1.870;2023-04-06T20:57:11;100499.13;;;9.48;79.08
71361;BME280;59166;48.908;1.870;2023-04-06T21:02:14;100487.88;;;9.35;79.14
71361;BME280;59166;48.908;1.870;2023-04-06T21:07:15;100493.03;;;9.19;80.67
71361;BME280;59166;48.908;1.870;2023-04-06T21:12:17;100502.00;;;9.08;82.14
71361;BME280;59166;48.908;1.870;2023-04-06T21:17:18;100496.88;;;8.90;81.73
71361;BME280;59166;48.908;1.870;2023-04-06T21:22:19;100490.88;;;8.71;83.24
71361;BME280;59166;48.908;1.870;2023-04-06T21:27:21;100493.16;;;8.63;83.41
71361;BME280;59166;48.908;1.870;2023-04-06T21:32:22;100494.13;;;8.57;84.54
71361;BME280;59166;48.908;1.870;2023-04-06T21:37:22;100494.50;;;8.49;85.78
71361;BME280;59166;48.908;1.870;2023-04-06T21:42:25;100490.09;;;8.43;86.95
71361;BME280;59166;48.908;1.870;2023-04-06T21:47:25;100482.06;;;8.31;87.68
71361;BME280;59166;48.908;1.870;2023-04-06T21:52:26;100483.63;;;8.27;88.66
71361;BME280;59166;48.908;1.870;2023-04-06T21:57:28;100485.78;;;8.13;89.05
71361;BME280;59166;48.908;1.870;2023-04-06T22:02:28;100483.09;;;8.13;88.66
71361;BME280;59166;48.908;1.870;2023-04-06T22:07:29;100469.53;;;8.08;90.14
71361;BME280;59166;48.908;1.870;2023-04-06T22:12:31;100474.56;;;8.05;91.50
71361;BME280;59166;48.908;1.870;2023-04-06T22:17:32;100475.28;;;8.00;92.49
71361;BME280;59166;48.908;1.870;2023-04-06T22:22:33;100478.94;;;7.94;92.62
71361;BME280;59166;48.908;1.870;2023-04-06T22:27:35;100485.50;;;7.87;93.44
71361;BME280;59166;48.908;1.870;2023-04-06T22:32:35;100482.50;;;7.83;93.81
71361;BME280;59166;48.908;1.870;2023-04-06T22:37:37;100470.72;;;7.72;94.14
71361;BME280;59166;48.908;1.870;2023-04-06T22:42:41;100480.31;;;7.68;96.05
71361;BME280;59166;48.908;1.870;2023-04-06T22:47:42;100486.84;;;7.61;92.85
71361;BME280;59166;48.908;1.870;2023-04-06T22:52:43;100472.03;;;7.58;93.32
71361;BME280;59166;48.908;1.870;2023-04-06T22:57:45;100467.94;;;7.56;93.04
71361;BME280;59166;48.908;1.870;2023-04-06T23:02:46;100472.84;;;7.47;94.29
71361;BME280;59166;48.908;1.870;2023-04-06T23:07:46;100478.69;;;7.44;95.64
71361;BME280;59166;48.908;1.870;2023-04-06T23:12:48;100466.31;;;7.43;96.06
71361;BME280;59166;48.908;1.870;2023-04-06T23:17:49;100465.72;;;7.41;95.87
71361;BME280;59166;48.908;1.870;2023-04-06T23:22:50;100470.31;;;7.29;95.89
71361;BME280;59166;48.908;1.870;2023-04-06T23:27:52;100461.31;;;7.23;96.00
71361;BME280;59166;48.908;1.870;2023-04-06T23:32:52;100465.75;;;7.18;96.51
71361;BME280;59166;48.908;1.870;2023-04-06T23:37:53;100469.72;;;7.15;97.45
71361;BME280;59166;48.908;1.870;2023-04-06T23:42:55;100465.28;;;7.09;97.02
71361;BME280;59166;48.908;1.870;2023-04-06T23:47:55;100460.47;;;7.00;97.85
71361;BME280;59166;48.908;1.870;2023-04-06T23:52:56;100463.75;;;6.90;98.34
71361;BME280;59166;48.908;1.870;2023-04-06T23:57:59;100469.00;;;6.85;98.68
